Time;durP1;ratioP1;P1;durP2;ratioP2;P2;SDS_P1;SDS_P2;PMS_P1;PMS_P2;Temp;Humidity;BMP_temperature;BMP_pressure;BME280_temperature;BME280_humidity;BME280_pressure;Samples;Min_cycle;Max_cycle;Signal;HPM_P1;HPM_P2
2022/03/21 00:00:42;;;;;;;36.45;20.38;;;4.80;99.90;;;;;;5046420;28;20242;-70
2022/03/21 00:03:09;;;;;;;41.50;20.88;;;4.80;99.90;;;;;;5061209;28;20021;-71
2022/03/21 00:05:35;;;;;;;38.28;20.88;;;4.80;99.80;;;;;;5044510;28;20017;-69
2022/03/21 00:08:02;;;;;;;34.78;20.20;;;4.80;99.60;;;;;;5063373;28;20029;-70
2022/03/21 00:10:30;;;;;;;41.03;21.13;;;4.80;99.60;;;;;;5048813;28;20025;-70
2022/03/21 00:12:56;;;;;;;42.78;21.45;;;4.80;99.60;;;;;;5079965;28;20077;-69
2022/03/21 00:15:23;;;;;;;40.75;21.75;;;4.90;99.60;;;;;;5086318;28;20234;-70
2022/03/21 00:17:49;;;;;;;46.22;21.63;;;4.90;99.70;;;;;;5085461;28;20024;-69
2022/03/21 00:20:16;;;;;;;47.28;21.95;;;4.90;99.80;;;;;;5086105;28;20080;-69
2022/03/21 00:22:42;;;;;;;38.47;21.88;;;4.80;99.80;;;;;;5086275;28;20024;-69
2022/03/21 00:25:09;;;;;;;40.95;21.40;;;4.80;99.90;;;;;;5085576;28;20345;-70
2022/03/21 00:27:36;;;;;;;41.85;21.67;;;4.80;99.90;;;;;;5085956;28;20025;-69
2022/03/21 00:30:04;;;;;;;42.28;22.48;;;4.80;99.90;;;;;;5084956;28;20024;-70
2022/03/21 00:32:29;;;;;;;41.47;22.38;;;4.70;99.90;;;;;;5084583;28;20355;-70
2022/03/21 00:34:55;;;;;;;40.85;22.92;;;4.70;99.90;;;;;;5084967;28;20067;-70
2022/03/21 00:37:23;;;;;;;43.70;22.58;;;4.70;99.90;;;;;;5083358;28;20078;-69
2022/03/21 00:39:50;;;;;;;38.47;22.42;;;4.70;99.90;;;;;;5085091;28;20019;-70
2022/03/21 00:42:16;;;;;;;41.60;22.35;;;4.60;99.90;;;;;;5085684;28;20323;-69
2022/03/21 00:44:42;;;;;;;40.20;22.80;;;4.60;99.90;;;;;;5084363;28;20020;-69
2022/03/21 00:47:08;;;;;;;39.38;21.95;;;4.60;99.90;;;;;;5084958;28;20035;-69
2022/03/21 00:49:33;;;;;;;38.78;22.38;;;4.60;99.90;;;;;;5085404;28;20039;-69
2022/03/21 00:51:59;;;;;;;37.83;21.58;;;4.60;99.90;;;;;;5067389;28;20119;-69
2022/03/21 00:54:25;;;;;;;40.10;21.52;;;4.60;99.90;;;;;;5085682;28;20036;-70
2022/03/21 00:56:51;;;;;;;43.00;22.50;;;4.50;99.90;;;;;;5085535;28;20055;-72
2022/03/21 00:59:17;;;;;;;41.70;22.58;;;4.50;99.90;;;;;;5085758;28;20025;-69
2022/03/21 01:01:42;;;;;;;46.30;23.80;;;4.50;99.90;;;;;;5085652;28;20100;-69
2022/03/21 01:04:08;;;;;;;39.22;20.73;;;4.50;99.90;;;;;;5084561;28;20496;-71
2022/03/21 01:06:35;;;;;;;40.97;22.50;;;4.50;99.90;;;;;;5085089;28;20184;-70
2022/03/21 01:09:01;;;;;;;44.58;23.63;;;4.40;99.90;;;;;;5084195;28;20031;-70
2022/03/21 01:11:27;;;;;;;44.55;22.08;;;4.40;99.90;;;;;;5082514;28;20033;-70
2022/03/21 01:13:52;;;;;;;41.30;22.60;;;4.30;99.90;;;;;;5064311;28;20095;-70
2022/03/21 01:16:18;;;;;;;42.30;22.08;;;4.30;99.90;;;;;;5065000;28;20032;-69
2022/03/21 01:18:45;;;;;;;42.33;23.30;;;4.30;99.90;;;;;;5064808;28;20028;-69
2022/03/21 01:21:11;;;;;;;41.47;22.77;;;4.30;99.90;;;;;;5063974;28;20021;-70
2022/03/21 01:23:37;;;;;;;38.45;22.63;;;4.30;99.90;;;;;;5064181;28;20017;-69
2022/03/21 01:26:03;;;;;;;39.50;21.55;;;4.30;99.90;;;;;;5065191;28;20028;-70
2022/03/21 01:28:29;;;;;;;41.85;23.25;;;4.30;99.90;;;;;;5065204;28;20258;-70
2022/03/21 01:30:55;;;;;;;39.40;22.42;;;4.30;99.90;;;;;;5065139;28;20036;-71
2022/03/21 01:33:20;;;;;;;39.50;21.90;;;4.30;99.90;;;;;;5064593;28;20024;-71
2022/03/21 01:35:46;;;;;;;45.10;22.77;;;4.30;99.90;;;;;;5064295;28;20025;-71
2022/03/21 01:38:12;;;;;;;44.55;23.27;;;4.30;99.90;;;;;;5062963;28;20219;-71
2022/03/21 01:40:37;;;;;;;39.40;21.77;;;4.30;99.90;;;;;;5064205;28;20032;-71
2022/03/21 01:43:10;;;;;;;46.03;22.67;;;4.20;99.90;;;;;;5063541;28;20070;-70
2022/03/21 01:45:36;;;;;;;44.85;23.02;;;4.20;99.90;;;;;;5064617;28;20326;-70
2022/03/21 01:48:02;;;;;;;44.08;22.70;;;4.20;99.90;;;;;;5063045;28;20025;-71
2022/03/21 01:50:27;;;;;;;41.40;22.73;;;4.20;99.90;;;;;;5064371;28;20048;-70
2022/03/21 01:55:43;;;;;;;38.03;22.35;;;4.10;99.90;;;;;;5064051;28;20362;-70
2022/03/21 01:55:48;;;;;;;42.83;22.35;;;4.10;99.90;;;;;;5049697;28;20104;-70
2022/03/21 01:58:14;;;;;;;41.38;21.90;;;4.10;99.90;;;;;;5064364;28;20067;-70
2022/03/21 02:00:41;;;;;;;37.15;21.42;;;4.10;99.90;;;;;;5064133;28;20056;-70
2022/03/21 02:03:07;;;;;;;40.63;21.90;;;4.10;99.90;;;;;;5063958;28;20033;-70
2022/03/21 02:05:37;;;;;;;39.08;21.40;;;4.10;99.90;;;;;;5062100;28;20071;-70
2022/03/21 02:08:04;;;;;;;42.40;22.55;;;4.10;99.90;;;;;;5062952;28;20220;-70
2022/03/21 02:10:30;;;;;;;37.08;21.17;;;4.00;99.90;;;;;;5062995;28;20021;-71
2022/03/21 02:12:56;;;;;;;44.10;22.58;;;4.00;99.90;;;;;;5076714;28;20327;-69
2022/03/21 02:15:22;;;;;;;46.22;21.70;;;4.00;99.90;;;;;;5083294;28;20024;-71
2022/03/21 02:17:52;;;;;;;44.67;22.33;;;4.00;99.90;;;;;;5084255;28;20032;-70
2022/03/21 02:20:18;;;;;;;43.40;21.55;;;4.00;99.90;;;;;;5099267;28;20021;-71
2022/03/21 02:23:16;;;;;;;39.08;20.40;;;4.00;99.90;;;;;;5083569;28;20111;-71
2022/03/21 02:25:43;;;;;;;38.75;20.85;;;4.00;99.90;;;;;;5065815;28;20093;-70
2022/03/21 02:28:11;;;;;;;41.70;21.20;;;4.00;99.90;;;;;;5083138;28;20106;-70
2022/03/21 02:30:43;;;;;;;41.85;20.52;;;3.90;99.90;;;;;;5082137;28;20043;-71
2022/03/21 02:33:11;;;;;;;44.63;21.67;;;3.90;99.90;;;;;;5082271;28;20051;-72
2022/03/21 02:35:38;;;;;;;38.55;21.25;;;3.80;99.90;;;;;;5065741;28;20044;-71
2022/03/21 02:38:04;;;;;;;42.15;21.65;;;3.80;99.90;;;;;;5082584;28;20113;-71
2022/03/21 02:40:30;;;;;;;40.00;21.80;;;3.80;99.90;;;;;;5081710;28;20028;-70
2022/03/21 02:42:56;;;;;;;37.65;20.63;;;3.80;99.90;;;;;;5083289;28;20224;-70
2022/03/21 02:45:22;;;;;;;40.80;21.45;;;3.80;99.90;;;;;;5083398;28;20029;-70
2022/03/21 02:47:48;;;;;;;36.40;20.27;;;3.90;99.90;;;;;;5082144;28;20055;-70
2022/03/21 02:50:18;;;;;;;40.78;21.20;;;4.00;99.90;;;;;;5082920;28;20024;-70
2022/03/21 02:52:47;;;;;;;38.22;20.63;;;4.00;99.90;;;;;;5081864;28;20059;-71
2022/03/21 02:55:13;;;;;;;41.00;22.13;;;4.10;99.90;;;;;;5083575;28;20021;-71
2022/03/21 02:57:39;;;;;;;36.92;20.50;;;4.10;99.90;;;;;;5083667;28;20364;-71
2022/03/21 03:00:05;;;;;;;35.15;20.50;;;4.10;99.90;;;;;;5099329;28;20020;-70
2022/03/21 03:02:31;;;;;;;41.30;21.05;;;4.20;99.90;;;;;;5083002;28;20050;-70
2022/03/21 03:04:56;;;;;;;35.03;20.55;;;4.30;99.90;;;;;;5082995;28;20060;-69
2022/03/21 03:07:22;;;;;;;42.17;20.95;;;4.30;99.90;;;;;;5083398;28;20051;-69
2022/03/21 03:09:47;;;;;;;38.05;20.48;;;4.40;99.90;;;;;;5065605;28;20020;-70
2022/03/21 03:12:13;;;;;;;36.95;19.77;;;4.50;99.90;;;;;;5073546;28;20025;-70
2022/03/21 03:14:39;;;;;;;37.05;19.65;;;4.50;99.90;;;;;;5045187;28;20306;-71
2022/03/21 03:17:06;;;;;;;34.97;19.58;;;4.60;99.90;;;;;;5062180;28;20254;-69
2022/03/21 03:19:31;;;;;;;39.75;19.48;;;4.60;99.90;;;;;;5061764;28;20029;-71
2022/03/21 03:21:57;;;;;;;33.25;19.30;;;4.70;99.90;;;;;;5045271;28;20083;-71
2022/03/21 03:24:26;;;;;;;34.40;19.13;;;4.70;99.90;;;;;;5063367;28;20021;-71
2022/03/21 03:26:52;;;;;;;37.08;19.65;;;4.80;99.90;;;;;;5061470;28;20027;-70
2022/03/21 03:29:18;;;;;;;36.03;19.92;;;4.80;99.90;;;;;;5062835;28;20032;-70
2022/03/21 03:31:45;;;;;;;33.40;18.98;;;4.80;99.90;;;;;;5061888;28;20021;-70
2022/03/21 03:34:11;;;;;;;34.63;18.33;;;4.80;99.90;;;;;;5063131;28;20037;-70
2022/03/21 03:36:38;;;;;;;38.10;19.88;;;4.80;99.90;;;;;;5061924;28;20305;-71
2022/03/21 03:39:04;;;;;;;37.17;19.10;;;4.70;99.90;;;;;;5062813;28;20308;-70
2022/03/21 03:41:30;;;;;;;34.47;19.35;;;4.70;99.90;;;;;;5060668;28;20217;-70
2022/03/21 03:43:56;;;;;;;35.95;20.08;;;4.60;99.90;;;;;;5064861;28;20315;-71
2022/03/21 03:46:23;;;;;;;34.97;19.95;;;4.60;99.90;;;;;;5049078;28;20021;-70
2022/03/21 03:48:49;;;;;;;38.10;19.65;;;4.50;99.90;;;;;;5066722;28;20012;-72
2022/03/21 03:51:15;;;;;;;33.83;20.40;;;4.50;99.90;;;;;;5066448;28;20031;-72
2022/03/21 03:53:42;;;;;;;37.42;20.75;;;4.50;99.90;;;;;;5066701;28;20021;-71
2022/03/21 03:56:08;;;;;;;37.72;20.25;;;4.40;99.90;;;;;;5066431;28;20032;-71
2022/03/21 03:58:35;;;;;;;34.83;20.05;;;4.40;99.90;;;;;;5048233;28;20098;-70
2022/03/21 04:01:00;;;;;;;37.78;19.65;;;4.50;99.90;;;;;;5065313;28;20262;-70
2022/03/21 04:06:15;;;;;;;41.53;21.33;;;4.60;99.80;;;;;;5065515;28;20017;-70
2022/03/21 04:08:41;;;;;;;36.25;19.55;;;4.70;99.80;;;;;;5064948;28;20215;-70
2022/03/21 04:11:07;;;;;;;42.72;21.75;;;4.80;99.70;;;;;;5066621;28;20238;-71
2022/03/21 04:13:32;;;;;;;38.40;21.55;;;4.90;99.70;;;;;;5084591;28;20126;-70
2022/03/21 04:15:58;;;;;;;37.80;20.23;;;4.90;99.50;;;;;;5084941;28;20032;-71
2022/03/21 04:18:25;;;;;;;39.08;21.02;;;5.00;99.40;;;;;;5086058;28;20032;-70
2022/03/21 04:20:55;;;;;;;38.50;19.90;;;5.00;99.30;;;;;;5086124;28;20029;-70
2022/03/21 04:23:21;;;;;;;39.35;20.83;;;5.10;99.20;;;;;;5085548;28;20024;-70
2022/03/21 04:25:47;;;;;;;37.00;21.88;;;5.10;99.10;;;;;;5086122;28;20052;-71
2022/03/21 04:28:15;;;;;;;42.92;22.65;;;5.10;98.90;;;;;;5084021;28;20296;-70
2022/03/21 04:30:41;;;;;;;47.67;23.98;;;5.10;99.00;;;;;;5086049;28;20322;-70
2022/03/21 04:33:09;;;;;;;42.25;23.13;;;5.10;99.00;;;;;;5084466;28;20092;-70
2022/03/21 04:35:36;;;;;;;44.95;23.88;;;5.20;99.00;;;;;;5084507;28;20048;-70
2022/03/21 04:38:03;;;;;;;43.55;24.08;;;5.20;98.90;;;;;;5085129;28;20091;-71
2022/03/21 04:40:29;;;;;;;46.63;24.83;;;5.30;98.70;;;;;;5083437;28;20028;-70
2022/03/21 04:42:55;;;;;;;43.20;24.02;;;5.30;98.60;;;;;;5084733;28;20033;-70
2022/03/21 04:45:21;;;;;;;44.08;24.10;;;5.30;98.40;;;;;;5086043;28;20012;-70
2022/03/21 04:47:47;;;;;;;46.47;25.75;;;5.30;98.40;;;;;;5085783;28;20027;-71
2022/03/21 04:50:13;;;;;;;45.58;24.95;;;5.40;98.40;;;;;;5086088;28;20020;-70
2022/03/21 04:52:40;;;;;;;45.58;25.40;;;5.40;98.50;;;;;;5083795;28;20366;-71
2022/03/21 04:55:07;;;;;;;49.55;27.30;;;5.40;98.60;;;;;;5082747;28;20246;-71
2022/03/21 04:57:34;;;;;;;44.15;24.85;;;5.50;98.70;;;;;;5085845;28;20082;-71
2022/03/21 05:00:01;;;;;;;47.83;25.33;;;5.50;98.70;;;;;;5084733;28;20043;-70
2022/03/21 05:02:26;;;;;;;43.35;26.05;;;5.50;98.70;;;;;;5084043;28;20083;-72
2022/03/21 05:04:52;;;;;;;51.20;27.73;;;5.50;98.70;;;;;;5084287;28;20090;-70
2022/03/21 05:07:19;;;;;;;48.85;26.65;;;5.50;98.50;;;;;;5085196;28;20028;-70
2022/03/21 05:09:45;;;;;;;49.80;26.92;;;5.60;98.50;;;;;;5084321;28;20031;-71
2022/03/21 05:12:12;;;;;;;50.22;27.63;;;5.70;98.30;;;;;;5076463;28;20075;-70
2022/03/21 05:14:38;;;;;;;53.40;27.10;;;5.80;98.20;;;;;;5064085;28;20040;-70
2022/03/21 05:17:05;;;;;;;50.05;27.27;;;5.80;98.10;;;;;;5065207;28;20020;-71
2022/03/21 05:19:34;;;;;;;50.97;27.52;;;5.80;98.10;;;;;;5063392;28;20021;-70
2022/03/21 05:22:02;;;;;;;49.80;27.08;;;5.80;98.30;;;;;;5065400;28;20020;-71
2022/03/21 05:32:45;;;;;;;50.25;27.17;;;5.80;98.50;;;;;;5077609;28;20032;-70
2022/03/21 05:37:56;;;;;;;52.70;28.30;;;5.80;98.40;;;;;;5063908;28;20036;-70
2022/03/21 05:40:41;;;;;;;48.47;27.88;;;5.80;98.40;;;;;;5063921;28;20017;-70
2022/03/21 05:43:07;;;;;;;50.05;29.27;;;5.90;98.40;;;;;;5063294;28;20028;-71
2022/03/21 05:45:32;;;;;;;48.70;28.90;;;6.00;98.40;;;;;;5063277;28;20025;-70
2022/03/21 05:50:43;;;;;;;48.95;28.23;;;5.90;98.50;;;;;;5063139;28;20016;-70
2022/03/21 05:53:09;;;;;;;56.83;29.65;;;5.90;98.60;;;;;;5062651;28;20052;-71
2022/03/21 05:55:36;;;;;;;53.50;29.35;;;6.00;98.70;;;;;;5064142;28;20189;-70
2022/03/21 05:58:01;;;;;;;55.03;29.02;;;6.00;98.70;;;;;;5063230;28;20308;-71
2022/03/21 06:00:27;;;;;;;52.35;30.23;;;6.00;98.70;;;;;;5063920;28;20047;-71
2022/03/21 06:02:54;;;;;;;51.78;30.02;;;6.00;98.60;;;;;;5063016;28;20037;-71
2022/03/21 06:05:22;;;;;;;55.08;30.08;;;6.10;98.60;;;;;;5063271;28;20044;-71
2022/03/21 06:07:50;;;;;;;56.25;30.25;;;6.10;98.70;;;;;;5063224;28;20197;-72
2022/03/21 06:10:15;;;;;;;51.90;29.63;;;6.10;98.70;;;;;;5046230;28;20208;-72
2022/03/21 06:12:41;;;;;;;53.22;29.65;;;6.10;98.70;;;;;;5076389;28;20187;-72
2022/03/21 06:15:08;;;;;;;54.22;29.98;;;6.20;98.60;;;;;;5082726;28;20016;-70
2022/03/21 06:17:38;;;;;;;54.40;30.70;;;6.30;98.60;;;;;;5083784;28;20046;-71
2022/03/21 06:20:07;;;;;;;56.10;30.75;;;6.30;98.60;;;;;;5083899;28;20091;-71
2022/03/21 06:22:33;;;;;;;62.42;31.02;;;6.30;98.60;;;;;;5082151;28;20335;-72
2022/03/21 06:24:58;;;;;;;63.22;30.73;;;6.40;98.60;;;;;;5099710;28;20091;-71
2022/03/21 06:27:24;;;;;;;52.92;29.50;;;6.40;98.50;;;;;;5082631;28;20219;-72
2022/03/21 06:29:50;;;;;;;58.15;30.33;;;6.50;98.50;;;;;;5083150;28;20134;-71
2022/03/21 06:32:15;;;;;;;55.78;30.25;;;6.50;98.40;;;;;;5082368;28;20035;-72
2022/03/21 06:34:41;;;;;;;55.90;28.92;;;6.50;98.40;;;;;;5083760;28;20016;-71
2022/03/21 06:37:08;;;;;;;59.58;28.70;;;6.70;98.20;;;;;;5063609;28;20094;-70
2022/03/21 06:39:34;;;;;;;62.38;28.90;;;6.70;98.00;;;;;;5082562;28;20027;-72
2022/03/21 06:42:00;;;;;;;58.50;29.60;;;6.70;98.20;;;;;;5064137;28;20016;-71
2022/03/21 06:44:25;;;;;;;54.22;29.75;;;6.70;98.40;;;;;;5081419;28;20031;-71
2022/03/21 06:46:51;;;;;;;59.88;30.77;;;6.60;98.40;;;;;;5081830;28;20026;-71
2022/03/21 06:49:16;;;;;;;59.35;30.80;;;6.60;98.70;;;;;;5083536;28;20035;-71
2022/03/21 06:51:42;;;;;;;56.00;30.75;;;6.60;98.70;;;;;;5080914;28;20058;-72
2022/03/21 06:54:08;;;;;;;57.90;31.17;;;6.70;98.70;;;;;;5083531;28;20319;-72
2022/03/21 06:56:34;;;;;;;53.97;29.52;;;6.80;98.90;;;;;;5080051;28;20130;-72
2022/03/21 06:58:59;;;;;;;62.40;30.20;;;6.70;98.70;;;;;;5079981;28;20047;-70
2022/03/21 07:01:25;;;;;;;56.50;31.13;;;6.70;98.90;;;;;;5081642;28;20024;-70
2022/03/21 07:03:51;;;;;;;54.63;30.70;;;6.70;99.00;;;;;;5081113;28;20082;-73
2022/03/21 07:06:17;;;;;;;56.22;29.00;;;6.60;99.10;;;;;;5079452;28;20287;-71
2022/03/21 07:08:51;;;;;;;53.90;30.40;;;6.70;98.60;;;;;;5082034;28;20223;-71
2022/03/21 07:11:18;;;;;;;54.42;29.98;;;6.70;98.70;;;;;;5065280;28;20058;-71
2022/03/21 07:13:43;;;;;;;52.35;29.88;;;6.70;98.60;;;;;;5061313;28;20031;-72
2022/03/21 07:16:15;;;;;;;52.03;30.08;;;6.80;98.60;;;;;;5061184;28;20048;-70
2022/03/21 07:18:42;;;;;;;59.08;31.25;;;6.80;98.60;;;;;;5060894;28;20032;-70
2022/03/21 07:21:08;;;;;;;52.70;30.13;;;6.90;98.60;;;;;;5060796;28;20089;-70
2022/03/21 07:23:34;;;;;;;52.75;29.55;;;6.90;98.40;;;;;;5062610;28;20040;-71
2022/03/21 07:26:02;;;;;;;54.70;29.83;;;7.00;98.30;;;;;;5061314;28;20071;-72
2022/03/21 07:28:28;;;;;;;60.55;31.30;;;7.10;98.50;;;;;;5061891;28;20039;-71
2022/03/21 07:30:54;;;;;;;53.15;30.05;;;7.10;98.50;;;;;;5062962;28;20025;-71
2022/03/21 07:33:20;;;;;;;56.25;30.23;;;7.10;98.30;;;;;;5062108;28;20315;-71
2022/03/21 07:35:46;;;;;;;58.40;31.60;;;7.20;98.30;;;;;;5061917;28;20021;-71
2022/03/21 07:38:13;;;;;;;60.90;31.02;;;7.20;98.40;;;;;;5045193;28;20033;-71
2022/03/21 07:40:39;;;;;;;55.38;30.95;;;7.30;98.40;;;;;;5061995;28;20026;-72
2022/03/21 07:43:05;;;;;;;56.00;30.05;;;7.50;98.20;;;;;;5059982;28;20037;-72
2022/03/21 07:48:16;;;;;;;53.55;29.05;;;7.60;97.40;;;;;;5061931;28;20066;-72
2022/03/21 07:50:42;;;;;;;52.97;30.50;;;7.70;97.70;;;;;;5062821;28;20051;-75
2022/03/21 07:53:08;;;;;;;55.67;30.67;;;7.80;97.70;;;;;;5062177;28;20080;-74
2022/03/21 07:55:34;;;;;;;56.33;29.98;;;7.90;97.20;;;;;;5062083;28;20032;-74
2022/03/21 07:58:00;;;;;;;55.67;28.08;;;7.90;97.10;;;;;;5045010;28;20316;-73
2022/03/21 08:00:27;;;;;;;55.83;27.58;;;7.90;97.30;;;;;;5060549;28;20029;-74
2022/03/21 08:02:53;;;;;;;54.80;29.30;;;7.90;97.10;;;;;;5068240;28;20040;-73
2022/03/21 08:05:22;;;;;;;49.45;29.10;;;7.90;97.10;;;;;;5079301;28;20024;-74
2022/03/21 08:07:48;;;;;;;50.03;27.88;;;8.00;97.30;;;;;;5070591;28;20243;-73
2022/03/21 08:10:15;;;;;;;59.97;29.67;;;8.00;97.20;;;;;;5060686;28;20033;-72
2022/03/21 08:12:42;;;;;;;52.20;30.10;;;8.10;97.10;;;;;;5074245;28;20055;-72
2022/03/21 08:15:11;;;;;;;56.72;29.15;;;8.10;97.30;;;;;;5080726;28;20051;-71
2022/03/21 08:17:57;;;;;;;49.83;28.90;;;8.20;97.10;;;;;;5098028;28;20223;-73
2022/03/21 08:20:25;;;;;;;54.10;29.05;;;8.20;96.70;;;;;;5077400;28;20071;-71
2022/03/21 08:22:52;;;;;;;53.22;28.55;;;8.20;97.00;;;;;;5062235;28;20128;-72
2022/03/21 08:25:20;;;;;;;51.92;28.00;;;8.20;96.90;;;;;;5077824;28;20021;-73
2022/03/21 08:27:46;;;;;;;54.55;28.90;;;8.30;96.70;;;;;;5077806;28;20044;-70
2022/03/21 08:30:15;;;;;;;49.53;28.33;;;8.40;96.80;;;;;;5079781;28;20013;-72
2022/03/21 08:32:42;;;;;;;51.40;27.63;;;8.50;96.20;;;;;;5081363;28;20044;-73
2022/03/21 08:35:08;;;;;;;51.42;28.52;;;8.50;95.90;;;;;;5081081;28;20078;-72
2022/03/21 08:37:34;;;;;;;48.63;28.35;;;8.50;95.90;;;;;;5080959;28;20308;-70
2022/03/21 08:40:00;;;;;;;51.63;28.23;;;8.50;95.90;;;;;;5081373;28;20017;-72
2022/03/21 08:42:25;;;;;;;45.30;27.02;;;8.70;95.40;;;;;;5081601;28;20029;-70
2022/03/21 08:44:51;;;;;;;47.58;27.25;;;8.70;95.70;;;;;;5064463;28;20092;-73
2022/03/21 08:47:17;;;;;;;45.50;26.58;;;8.70;95.50;;;;;;5064252;28;20216;-73
2022/03/21 08:49:42;;;;;;;47.90;26.75;;;8.80;95.10;;;;;;5081356;28;20021;-70
2022/03/21 08:52:08;;;;;;;48.45;27.77;;;8.80;95.40;;;;;;5064937;28;20385;-74
2022/03/21 08:54:34;;;;;;;48.50;27.98;;;8.80;95.50;;;;;;5065324;28;20047;-72
2022/03/21 08:57:00;;;;;;;53.00;27.63;;;8.80;94.80;;;;;;5080679;28;20021;-70
2022/03/21 08:59:25;;;;;;;46.45;27.75;;;8.90;95.20;;;;;;5081434;28;20028;-70
2022/03/21 09:01:52;;;;;;;55.63;28.73;;;8.90;95.20;;;;;;5080779;28;20212;-73
2022/03/21 09:04:17;;;;;;;52.17;26.80;;;9.00;94.90;;;;;;5062585;28;20033;-72
2022/03/21 09:06:43;;;;;;;45.92;27.20;;;9.10;94.80;;;;;;5078804;28;20070;-71
2022/03/21 09:09:10;;;;;;;47.05;26.75;;;9.30;94.60;;;;;;5062954;28;20393;-72
2022/03/21 09:11:37;;;;;;;56.08;28.58;;;9.30;94.30;;;;;;5063446;28;20041;-71
2022/03/21 09:14:03;;;;;;;46.00;28.10;;;9.30;94.30;;;;;;5063318;28;20104;-71
2022/03/21 09:16:29;;;;;;;40.72;23.63;;;9.30;94.70;;;;;;5064966;28;20039;-75
2022/03/21 09:18:55;;;;;;;45.65;27.13;;;9.30;94.50;;;;;;5064648;28;20037;-72
2022/03/21 09:21:21;;;;;;;51.65;28.58;;;9.30;94.00;;;;;;5065235;28;20394;-72
2022/03/21 09:23:47;;;;;;;46.28;26.77;;;9.30;94.50;;;;;;5065287;28;20031;-71
2022/03/21 09:26:12;;;;;;;46.88;27.52;;;9.30;94.40;;;;;;5065092;28;20017;-71
2022/03/21 09:28:43;;;;;;;52.47;28.15;;;9.30;94.30;;;;;;5064345;28;20013;-73
2022/03/21 09:31:10;;;;;;;47.13;27.88;;;9.40;94.50;;;;;;5082325;28;20024;-69
2022/03/21 09:33:36;;;;;;;43.47;26.27;;;9.50;94.30;;;;;;5084253;28;20025;-72
2022/03/21 09:36:03;;;;;;;48.35;26.95;;;9.50;94.30;;;;;;5066585;28;20108;-74
2022/03/21 09:38:29;;;;;;;53.85;28.02;;;9.60;94.30;;;;;;5063066;28;20052;-74
2022/03/21 09:40:55;;;;;;;46.03;26.83;;;9.70;94.20;;;;;;5063347;28;20056;-70
2022/03/21 09:43:24;;;;;;;47.60;26.90;;;9.60;93.90;;;;;;5064166;28;20016;-71
2022/03/21 09:45:51;;;;;;;54.42;28.40;;;9.80;94.00;;;;;;5061047;28;20013;-72
2022/03/21 09:48:19;;;;;;;49.40;28.55;;;10.00;94.00;;;;;;5078805;28;20021;-71
2022/03/21 09:50:46;;;;;;;48.42;28.77;;;9.90;93.50;;;;;;5083506;28;20027;-70
2022/03/21 09:53:15;;;;;;;51.13;28.95;;;9.80;93.70;;;;;;5083301;28;20111;-73
2022/03/21 09:55:45;;;;;;;50.28;29.65;;;9.80;94.00;;;;;;5061816;28;20115;-72
2022/03/21 09:58:11;;;;;;;53.53;29.92;;;9.80;93.80;;;;;;5061555;28;20025;-71
2022/03/21 10:00:39;;;;;;;55.00;29.25;;;9.80;93.70;;;;;;5062875;28;20258;-73
2022/03/21 10:03:05;;;;;;;50.53;28.42;;;9.90;94.10;;;;;;5078134;28;20025;-71
2022/03/21 10:05:36;;;;;;;47.58;28.30;;;9.90;94.00;;;;;;5061649;28;20100;-72
2022/03/21 10:08:26;;;;;;;49.45;29.25;;;10.00;93.70;;;;;;5069377;28;20084;-72
2022/03/21 10:11:05;;;;;;;49.78;28.38;;;10.20;93.80;;;;;;5062729;28;20037;-72
2022/03/21 10:13:33;;;;;;;47.70;26.23;;;10.40;93.90;;;;;;5082019;28;20032;-76
2022/03/21 10:16:16;;;;;;;44.90;27.10;;;10.60;93.20;;;;;;5082668;28;20020;-74
2022/03/21 10:18:58;;;;;;;45.15;26.70;;;10.70;93.00;;;;;;5076105;28;20291;-72
2022/03/21 10:21:26;;;;;;;43.25;25.80;;;11.00;93.10;;;;;;5078237;28;20021;-71
2022/03/21 10:24:07;;;;;;;46.60;27.83;;;10.90;92.60;;;;;;5061966;28;20027;-73
2022/03/21 10:26:36;;;;;;;45.50;26.90;;;10.90;92.60;;;;;;5061498;28;20020;-75
2022/03/21 10:29:08;;;;;;;47.20;28.45;;;10.80;92.80;;;;;;5077628;28;20277;-72
2022/03/21 10:31:52;;;;;;;48.65;28.90;;;10.90;92.70;;;;;;5061411;28;20025;-73
2022/03/21 10:34:20;;;;;;;41.53;23.77;;;11.00;92.60;;;;;;5061326;28;20032;-75
2022/03/21 10:37:08;;;;;;;42.58;27.25;;;11.00;93.00;;;;;;5077694;28;20096;-73
2022/03/21 10:39:35;;;;;;;53.85;28.85;;;11.00;92.30;;;;;;5075015;28;20052;-75
2022/03/21 10:42:04;;;;;;;50.38;27.02;;;11.10;92.60;;;;;;5061332;28;20028;-75
2022/03/21 10:44:32;;;;;;;42.75;25.17;;;11.00;93.00;;;;;;5062567;28;20017;-76
2022/03/21 10:47:03;;;;;;;44.42;26.60;;;11.10;92.90;;;;;;5076306;28;20071;-73
2022/03/21 10:49:34;;;;;;;47.28;25.52;;;11.20;92.60;;;;;;5060692;28;20092;-75
2022/03/21 10:52:00;;;;;;;;;;;11.30;92.70;;;;;;5057236;28;683123;-73
2022/03/21 10:54:48;;;;;;;45.05;28.55;;;11.30;92.40;;;;;;5069780;28;19986;-77
2022/03/21 10:57:36;;;;;;;45.72;27.05;;;11.30;92.40;;;;;;5075447;28;20038;-70
2022/03/21 11:00:22;;;;;;;50.05;28.17;;;11.50;92.90;;;;;;5075016;28;20312;-75
2022/03/21 11:03:05;;;;;;;47.83;26.80;;;11.60;92.50;;;;;;5075733;28;20052;-76
2022/03/21 11:05:34;;;;;;;52.17;28.00;;;11.60;92.20;;;;;;5062465;28;20394;-72
2022/03/21 11:08:00;;;;;;;47.55;28.10;;;11.50;92.60;;;;;;5061069;28;20315;-78
2022/03/21 11:10:26;;;;;;;41.83;26.15;;;11.50;92.60;;;;;;5061543;28;20028;-75
2022/03/21 11:12:55;;;;;;;48.88;28.30;;;11.50;92.40;;;;;;5071363;28;20402;-74
2022/03/21 11:15:22;;;;;;;44.40;27.73;;;11.60;92.80;;;;;;5044614;28;20033;-73
2022/03/21 11:17:48;;;;;;;53.33;28.00;;;11.80;92.80;;;;;;5061573;28;20040;-74
2022/03/21 11:20:14;;;;;;;41.42;25.15;;;11.90;92.50;;;;;;5044472;28;20094;-74
2022/03/21 11:22:41;;;;;;;45.55;29.00;;;12.00;92.40;;;;;;5071191;28;20021;-73
2022/03/21 11:25:16;;;;;;;45.85;26.45;;;12.30;92.10;;;;;;5063990;28;20330;-73
2022/03/21 11:28:04;;;;;;;49.05;27.02;;;12.50;91.90;;;;;;5077669;28;20374;-71
2022/03/21 11:30:56;;;;;;;44.55;27.17;;;12.70;91.80;;;;;;5062995;28;20318;-73
2022/03/21 11:33:47;;;;;;;48.42;28.10;;;12.80;91.90;;;;;;5060977;28;20189;-74
2022/03/21 11:36:13;;;;;;;44.28;27.42;;;12.90;91.60;;;;;;5047574;28;20101;-71
2022/03/21 11:38:45;;;;;;;43.85;26.85;;;12.90;91.50;;;;;;5060827;28;20108;-73
2022/03/21 11:41:21;;;;;;;49.90;29.13;;;13.10;91.70;;;;;;5045100;28;20070;-76
2022/03/21 11:44:08;;;;;;;49.33;29.00;;;13.30;91.20;;;;;;5069658;28;20021;-73
2022/03/21 11:46:35;;;;;;;45.08;27.92;;;13.60;90.70;;;;;;5082839;28;20209;-73
2022/03/21 11:49:03;;;;;;;47.45;28.98;;;13.60;90.90;;;;;;5081254;28;20036;-74
2022/03/21 11:51:45;;;;;;;44.28;28.02;;;13.60;91.00;;;;;;5044909;28;20094;-73
2022/03/21 11:54:32;;;;;;;53.90;28.88;;;13.50;91.00;;;;;;5044030;28;20031;-73
2022/03/21 11:57:02;;;;;;;47.92;29.58;;;13.60;91.00;;;;;;5061370;28;20032;-73
2022/03/21 11:59:48;;;;;;;47.50;27.77;;;13.80;91.20;;;;;;5074382;28;20044;-72
2022/03/21 12:02:54;;;;;;;44.03;27.75;;;14.00;90.60;;;;;;5070172;28;20029;-74
2022/03/21 12:05:37;;;;;;;44.42;28.85;;;14.00;90.80;;;;;;5073041;28;20020;-74
2022/03/21 12:08:31;;;;;;;45.15;28.08;;;14.20;90.90;;;;;;5085875;28;20049;-74
2022/03/21 12:10:56;;;;;;;45.90;29.42;;;14.30;90.30;;;;;;5081152;28;20062;-74
2022/03/21 12:13:22;;;;;;;46.20;29.23;;;14.20;90.40;;;;;;5083188;28;20025;-74
2022/03/21 12:15:51;;;;;;;45.47;28.60;;;14.10;90.90;;;;;;5067363;28;20066;-73
2022/03/21 12:18:19;;;;;;;49.22;29.20;;;14.10;90.90;;;;;;5085808;28;20046;-73
2022/03/21 12:20:47;;;;;;;50.17;29.35;;;14.10;90.90;;;;;;5100566;28;20020;-73
2022/03/21 12:23:22;;;;;;;45.03;27.90;;;14.10;91.30;;;;;;5085575;28;20024;-74
2022/03/21 12:25:50;;;;;;;44.25;27.95;;;14.10;91.10;;;;;;5084549;28;20033;-73
2022/03/21 12:29:31;;;;;;;49.85;29.17;;;14.20;91.00;;;;;;5084718;28;20024;-72
2022/03/21 12:31:30;;;;;;;45.35;28.48;;;14.30;91.10;;;;;;5085292;28;20092;-73
2022/03/21 12:34:34;;;;;;;49.63;29.33;;;14.50;90.90;;;;;;5084021;28;20084;-73
2022/03/21 12:37:22;;;;;;;57.90;29.77;;;14.60;90.60;;;;;;5072444;28;20031;-71
2022/03/21 12:39:48;;;;;;;47.20;29.25;;;14.50;91.00;;;;;;5084361;28;20039;-74
2022/03/21 12:42:17;;;;;;;52.45;30.00;;;14.60;90.90;;;;;;5067614;28;20021;-76
2022/03/21 12:44:43;;;;;;;45.70;28.60;;;14.90;90.50;;;;;;5084298;28;20024;-75
2022/03/21 12:47:10;;;;;;;49.58;29.13;;;14.90;90.50;;;;;;5084222;28;20042;-73
2022/03/21 12:49:48;;;;;;;51.00;29.50;;;15.00;90.80;;;;;;5084326;28;20075;-74
2022/03/21 12:52:26;;;;;;;46.35;28.17;;;15.10;90.50;;;;;;5083922;28;20053;-75
2022/03/21 12:54:53;;;;;;;53.25;28.98;;;15.20;90.20;;;;;;5067392;28;20507;-75
2022/03/21 12:57:19;;;;;;;46.15;28.88;;;15.30;90.40;;;;;;5065813;28;20024;-77
2022/03/21 12:59:44;;;;;;;46.22;24.17;;;15.50;90.20;;;;;;5065163;28;20025;-75
2022/03/21 13:02:26;;;;;;;47.70;26.42;;;15.60;90.10;;;;;;5064042;28;20327;-76